Time;durP1;ratioP1;P1;durP2;ratioP2;P2;SDS_P1;SDS_P2;PMS_P1;PMS_P2;Temp;Humidity;BMP_temperature;BMP_pressure;BME280_temperature;BME280_humidity;BME280_pressure;Samples;Min_cycle;Max_cycle;Signal;HPM_P1;HPM_P2
2022/03/20 00:00:08;;;;;;;23.65;15.07;;;2.50;93.80;;;;;;5071419;28;20260;-44
2022/03/20 00:02:36;;;;;;;25.25;15.63;;;2.50;93.80;;;;;;5068042;28;20255;-49
2022/03/20 00:05:04;;;;;;;29.40;17.73;;;2.60;94.00;;;;;;5071528;28;20216;-47
2022/03/20 00:07:33;;;;;;;19.58;14.35;;;2.40;94.40;;;;;;5067548;28;20201;-44
2022/03/20 00:10:04;;;;;;;23.85;15.57;;;2.40;94.40;;;;;;5069238;28;20297;-47
2022/03/20 00:12:31;;;;;;;19.48;15.38;;;2.30;94.80;;;;;;5069717;28;20218;-48
2022/03/20 00:14:58;;;;;;;24.27;15.23;;;2.20;95.00;;;;;;5070122;28;20566;-46
2022/03/20 00:17:25;;;;;;;26.65;13.93;;;2.20;94.90;;;;;;5065121;28;20515;-46
2022/03/20 00:19:53;;;;;;;27.13;14.93;;;2.40;95.10;;;;;;5070163;28;20557;-46
2022/03/20 00:22:21;;;;;;;26.73;15.82;;;2.30;94.90;;;;;;5073486;28;20204;-48
2022/03/20 00:24:48;;;;;;;22.45;15.35;;;2.20;95.10;;;;;;5073637;28;20275;-44
2022/03/20 00:27:16;;;;;;;21.35;14.18;;;2.20;95.10;;;;;;5073152;28;20195;-47
2022/03/20 00:29:44;;;;;;;22.15;14.25;;;2.10;95.40;;;;;;5070489;28;20205;-47
2022/03/20 00:32:13;;;;;;;21.17;13.90;;;2.10;95.40;;;;;;5073263;28;20243;-47
2022/03/20 00:34:41;;;;;;;23.02;16.08;;;2.20;95.60;;;;;;5069751;28;20215;-48
2022/03/20 00:37:09;;;;;;;20.23;14.05;;;2.20;95.50;;;;;;5072472;28;20405;-48
2022/03/20 00:39:36;;;;;;;18.15;14.68;;;2.10;95.60;;;;;;5066797;28;20201;-46
2022/03/20 00:42:05;;;;;;;23.80;15.48;;;2.10;95.70;;;;;;5070102;28;20258;-46
2022/03/20 00:44:32;;;;;;;29.42;15.90;;;2.30;95.30;;;;;;5067554;28;20231;-46
2022/03/20 00:46:59;;;;;;;19.50;14.65;;;2.10;95.70;;;;;;5073218;28;20213;-44
2022/03/20 00:49:26;;;;;;;24.88;14.65;;;1.90;96.10;;;;;;5069639;28;20215;-47
2022/03/20 00:51:54;;;;;;;21.02;14.75;;;1.90;96.20;;;;;;5066006;28;20221;-47
2022/03/20 00:54:21;;;;;;;22.13;15.23;;;1.90;96.50;;;;;;5068141;28;20191;-47
2022/03/20 00:56:48;;;;;;;23.85;14.15;;;1.80;97.10;;;;;;5067326;28;20199;-45
2022/03/20 00:59:15;;;;;;;24.52;14.85;;;1.90;96.70;;;;;;5066891;28;20192;-49
2022/03/20 01:01:42;;;;;;;19.60;13.23;;;1.70;97.00;;;;;;5066384;28;20551;-48
2022/03/20 01:04:10;;;;;;;28.00;15.90;;;1.80;97.00;;;;;;5070101;28;20282;-45
2022/03/20 01:06:37;;;;;;;23.63;15.38;;;1.80;97.00;;;;;;5070700;28;20205;-44
2022/03/20 01:09:05;;;;;;;20.52;14.32;;;1.70;97.30;;;;;;5076409;28;20255;-47
2022/03/20 01:11:33;;;;;;;24.38;15.95;;;1.70;97.30;;;;;;5072556;28;20228;-45
2022/03/20 01:14:00;;;;;;;25.48;16.73;;;1.70;97.30;;;;;;5070270;28;20204;-48
2022/03/20 01:16:28;;;;;;;21.13;14.77;;;1.60;97.80;;;;;;5067595;28;20228;-46
2022/03/20 01:18:55;;;;;;;24.20;15.77;;;1.50;98.10;;;;;;5069620;28;20446;-46
2022/03/20 01:21:23;;;;;;;28.20;15.20;;;1.60;97.90;;;;;;5068358;28;20223;-46
2022/03/20 01:23:50;;;;;;;24.63;14.85;;;1.70;97.90;;;;;;5068508;28;20233;-45
2022/03/20 01:26:17;;;;;;;18.08;13.90;;;1.70;97.70;;;;;;5072781;28;20207;-45
2022/03/20 01:28:45;;;;;;;19.23;14.63;;;1.60;98.00;;;;;;5071543;28;20207;-47
2022/03/20 01:31:13;;;;;;;28.50;15.68;;;1.60;98.00;;;;;;5066740;28;20422;-46
2022/03/20 01:33:41;;;;;;;21.73;14.27;;;1.60;98.10;;;;;;5066975;28;20215;-45
2022/03/20 01:36:08;;;;;;;23.92;16.42;;;1.40;98.60;;;;;;5072719;28;20202;-47
2022/03/20 01:38:36;;;;;;;27.38;16.00;;;1.50;98.40;;;;;;5067608;28;20230;-45
2022/03/20 01:41:03;;;;;;;20.25;14.55;;;1.40;98.60;;;;;;5074408;28;20224;-46
2022/03/20 01:43:31;;;;;;;19.17;13.63;;;1.40;98.90;;;;;;5066846;28;20211;-46
2022/03/20 01:45:58;;;;;;;24.48;14.25;;;1.30;99.00;;;;;;5067976;28;20208;-47
2022/03/20 01:48:25;;;;;;;24.98;15.23;;;1.30;99.00;;;;;;5065341;28;20420;-47
2022/03/20 01:50:54;;;;;;;28.50;16.33;;;1.30;99.20;;;;;;5066686;28;20234;-47
2022/03/20 01:53:21;;;;;;;25.88;14.65;;;1.20;99.40;;;;;;5061682;28;20267;-50
2022/03/20 01:55:50;;;;;;;19.73;13.48;;;1.30;99.40;;;;;;5060386;28;20525;-47
2022/03/20 01:58:18;;;;;;;23.45;14.98;;;1.30;99.60;;;;;;5062689;28;20498;-46
2022/03/20 02:00:45;;;;;;;19.35;14.45;;;1.30;99.30;;;;;;5062007;28;20249;-46
2022/03/20 02:03:12;;;;;;;19.88;14.68;;;1.20;99.70;;;;;;5065470;28;20636;-45
2022/03/20 02:05:42;;;;;;;21.98;14.05;;;1.30;99.60;;;;;;5064192;28;20267;-47
2022/03/20 02:08:11;;;;;;;32.95;14.63;;;1.30;99.40;;;;;;5062381;28;20518;-49
2022/03/20 02:10:40;;;;;;;16.83;12.77;;;1.20;99.40;;;;;;5071941;28;20493;-49
2022/03/20 02:13:07;;;;;;;18.90;14.52;;;1.30;99.50;;;;;;5074399;28;20204;-45
2022/03/20 02:15:35;;;;;;;27.65;16.73;;;1.40;99.30;;;;;;5074061;28;20545;-46
2022/03/20 02:18:02;;;;;;;17.85;14.57;;;1.30;99.40;;;;;;5067117;28;20196;-46
2022/03/20 02:20:31;;;;;;;21.90;14.68;;;1.30;99.50;;;;;;5064046;28;20219;-46
2022/03/20 02:22:58;;;;;;;22.35;14.20;;;1.30;99.70;;;;;;5066366;28;20222;-46
2022/03/20 02:25:25;;;;;;;20.92;13.77;;;1.40;99.40;;;;;;5063856;28;20207;-45
2022/03/20 02:27:53;;;;;;;22.63;13.32;;;1.30;99.60;;;;;;5066165;28;20200;-44
2022/03/20 02:30:22;;;;;;;19.52;13.23;;;1.30;99.90;;;;;;5063467;28;20438;-46
2022/03/20 02:32:51;;;;;;;31.10;14.85;;;1.30;99.90;;;;;;5069973;28;20206;-48
2022/03/20 02:35:20;;;;;;;20.55;14.77;;;1.20;99.90;;;;;;5068228;28;20215;-46
2022/03/20 02:37:50;;;;;;;18.85;14.75;;;1.00;99.90;;;;;;5066954;28;20210;-46
2022/03/20 02:40:21;;;;;;;23.40;13.40;;;1.00;99.90;;;;;;5065150;28;20481;-45
2022/03/20 02:42:50;;;;;;;19.73;14.77;;;1.00;99.90;;;;;;5065380;28;20266;-44
2022/03/20 02:45:23;;;;;;;22.75;14.30;;;1.00;99.90;;;;;;5063817;28;20203;-46
2022/03/20 02:47:51;;;;;;;20.38;15.10;;;1.00;99.90;;;;;;5065565;28;20458;-43
2022/03/20 02:50:27;;;;;;;23.45;14.95;;;0.80;99.90;;;;;;5063386;28;20215;-43
2022/03/20 02:52:58;;;;;;;19.67;14.02;;;0.80;99.90;;;;;;5063573;28;20217;-47
2022/03/20 02:55:35;;;;;;;20.35;14.45;;;0.80;99.90;;;;;;5066209;28;20231;-45
2022/03/20 02:58:05;;;;;;;25.52;15.70;;;0.70;99.90;;;;;;5063225;28;20200;-46
2022/03/20 03:00:34;;;;;;;21.48;13.90;;;0.50;99.90;;;;;;5063595;28;20224;-44
2022/03/20 03:03:06;;;;;;;18.80;13.95;;;0.60;99.90;;;;;;5063518;28;20203;-44
2022/03/20 03:05:34;;;;;;;20.20;14.38;;;0.50;99.90;;;;;;5072136;28;20242;-45
2022/03/20 03:10:57;;;;;;;23.80;15.98;;;0.50;99.90;;;;;;5065767;28;20235;-45
2022/03/20 03:13:30;;;;;;;21.70;13.35;;;0.40;99.90;;;;;;5063240;28;20265;-45
2022/03/20 03:16:00;;;;;;;29.90;15.60;;;0.30;99.90;;;;;;5064075;28;20195;-47
2022/03/20 03:18:27;;;;;;;22.77;14.40;;;0.30;99.90;;;;;;5066728;28;20234;-46
2022/03/20 03:20:55;;;;;;;20.20;13.63;;;0.30;99.90;;;;;;5063168;28;20230;-44
2022/03/20 03:23:24;;;;;;;21.92;15.57;;;0.30;99.90;;;;;;5065282;28;20211;-46
2022/03/20 03:25:53;;;;;;;23.52;14.85;;;0.20;99.90;;;;;;5063776;28;20254;-43
2022/03/20 03:28:20;;;;;;;25.67;16.25;;;0.20;99.90;;;;;;5063785;28;20200;-45
2022/03/20 03:30:48;;;;;;;32.63;16.98;;;0.10;99.90;;;;;;5072473;28;20448;-47
2022/03/20 03:33:19;;;;;;;21.30;14.40;;;0.10;99.90;;;;;;5071777;28;20199;-45
2022/03/20 03:35:57;;;;;;;23.10;14.15;;;0.10;99.90;;;;;;5066416;28;20199;-46
2022/03/20 03:38:30;;;;;;;23.27;16.23;;;0.10;99.90;;;;;;5061775;28;20245;-45
2022/03/20 03:40:59;;;;;;;19.77;14.85;;;0.20;99.90;;;;;;5062940;28;20566;-45
2022/03/20 03:43:26;;;;;;;19.52;13.65;;;0.10;99.90;;;;;;5062776;28;20537;-43
2022/03/20 03:45:54;;;;;;;24.23;16.95;;;0.20;99.90;;;;;;5064001;28;20222;-45
2022/03/20 03:48:21;;;;;;;21.73;15.25;;;0.00;99.90;;;;;;5064797;28;20211;-46
2022/03/20 03:50:52;;;;;;;21.38;15.18;;;0.00;99.90;;;;;;5062616;28;20230;-47
2022/03/20 03:53:19;;;;;;;21.15;15.13;;;-0.10;99.90;;;;;;5063470;28;20192;-47
2022/03/20 03:55:47;;;;;;;20.45;16.58;;;-0.20;99.90;;;;;;5062907;28;20195;-44
2022/03/20 03:58:15;;;;;;;24.05;18.17;;;-0.10;99.90;;;;;;5062493;28;20207;-47
2022/03/20 04:00:43;;;;;;;25.67;16.48;;;-0.10;99.90;;;;;;5064024;28;20224;-47
2022/03/20 04:03:13;;;;;;;17.40;14.02;;;-0.10;99.90;;;;;;5062610;28;20195;-42
2022/03/20 04:05:41;;;;;;;29.67;17.27;;;-0.10;99.90;;;;;;5063840;28;20230;-45
2022/03/20 04:08:09;;;;;;;24.58;16.77;;;-0.20;99.90;;;;;;5062877;28;20199;-46
2022/03/20 04:10:36;;;;;;;24.73;15.63;;;-0.30;99.90;;;;;;5069103;28;20589;-47
2022/03/20 04:13:04;;;;;;;25.00;16.85;;;-0.10;99.90;;;;;;5076979;28;20192;-47
2022/03/20 04:15:32;;;;;;;20.10;14.30;;;-0.20;99.90;;;;;;5062262;28;20211;-45
2022/03/20 04:18:01;;;;;;;19.92;14.35;;;-0.10;99.90;;;;;;5062587;28;20208;-50
2022/03/20 04:20:28;;;;;;;23.52;17.08;;;-0.30;99.90;;;;;;5060389;28;20278;-49
2022/03/20 04:25:43;;;;;;;20.17;15.10;;;-0.10;99.90;;;;;;5060831;28;20195;-44
2022/03/20 04:28:10;;;;;;;25.00;16.20;;;-0.30;99.90;;;;;;5066389;28;20214;-45
2022/03/20 04:30:37;;;;;;;22.75;16.75;;;-0.20;99.90;;;;;;5065780;28;20222;-47
2022/03/20 04:33:04;;;;;;;25.67;16.02;;;-0.30;99.90;;;;;;5062652;28;20222;-45
2022/03/20 04:35:32;;;;;;;28.33;17.20;;;-0.30;99.90;;;;;;5061010;28;20199;-45
2022/03/20 04:38:04;;;;;;;26.33;17.70;;;-0.20;99.90;;;;;;5060573;28;20490;-50
2022/03/20 04:40:33;;;;;;;26.02;15.45;;;-0.20;99.90;;;;;;5062275;28;20553;-46
2022/03/20 04:43:00;;;;;;;24.73;15.45;;;-0.10;99.90;;;;;;5062571;28;20199;-49
2022/03/20 04:45:28;;;;;;;23.08;15.73;;;-0.20;99.90;;;;;;5063120;28;20373;-47
2022/03/20 04:59:02;;;;;;;31.05;17.10;;;-0.30;99.90;;;;;;5061821;28;20226;-46
2022/03/20 05:01:29;;;;;;;24.77;15.07;;;-0.20;99.90;;;;;;5061475;28;20231;-48
2022/03/20 05:03:58;;;;;;;26.58;16.15;;;-0.10;99.90;;;;;;5066022;28;20462;-50
2022/03/20 05:06:25;;;;;;;17.60;14.45;;;-0.10;99.90;;;;;;5065221;28;20238;-48
2022/03/20 05:08:53;;;;;;;21.05;14.50;;;-0.10;99.90;;;;;;5062899;28;20427;-45
2022/03/20 05:14:06;;;;;;;25.88;16.55;;;0.00;99.90;;;;;;5062017;28;20368;-45
2022/03/20 05:16:33;;;;;;;23.42;15.15;;;0.00;99.90;;;;;;5064434;28;20196;-43
2022/03/20 05:19:01;;;;;;;21.45;16.33;;;0.00;99.90;;;;;;5061741;28;20511;-48
2022/03/20 05:21:29;;;;;;;21.92;15.27;;;0.10;99.90;;;;;;5060385;28;20231;-47
2022/03/20 05:23:56;;;;;;;25.75;17.17;;;0.20;99.90;;;;;;5061043;28;20263;-45
2022/03/20 05:26:24;;;;;;;26.52;17.23;;;0.20;99.90;;;;;;5061734;28;20203;-45
2022/03/20 05:28:51;;;;;;;23.70;16.85;;;0.30;99.90;;;;;;5063288;28;20199;-45
2022/03/20 05:31:18;;;;;;;25.77;14.65;;;0.50;99.90;;;;;;5065995;28;20230;-46
2022/03/20 05:33:46;;;;;;;24.98;16.38;;;0.60;99.90;;;;;;5062925;28;20199;-49
2022/03/20 05:36:13;;;;;;;24.58;17.17;;;0.70;99.90;;;;;;5060210;28;20195;-47
2022/03/20 05:38:40;;;;;;;24.25;15.95;;;1.00;99.90;;;;;;5060924;28;20212;-44
2022/03/20 05:43:54;;;;;;;24.85;15.95;;;1.40;99.90;;;;;;5064420;28;20426;-49
2022/03/20 05:46:21;;;;;;;21.23;15.15;;;1.70;99.90;;;;;;5067570;28;20227;-46
2022/03/20 05:48:49;;;;;;;31.50;15.80;;;2.00;99.90;;;;;;5066775;28;20393;-47
2022/03/20 05:51:17;;;;;;;27.15;14.75;;;2.20;99.90;;;;;;5070136;28;20543;-48
2022/03/20 05:53:44;;;;;;;26.35;15.85;;;2.50;99.90;;;;;;5069644;28;20202;-47
2022/03/20 05:59:00;;;;;;;19.92;15.20;;;3.10;99.90;;;;;;5064146;28;20198;-47
2022/03/20 06:01:27;;;;;;;25.80;14.68;;;3.00;99.90;;;;;;5064711;28;20226;-46
2022/03/20 06:03:54;;;;;;;22.35;14.75;;;3.20;99.90;;;;;;5065867;28;20517;-47
2022/03/20 06:06:21;;;;;;;24.65;13.98;;;3.30;99.90;;;;;;5064493;28;20264;-47
2022/03/20 06:08:49;;;;;;;24.48;15.48;;;3.40;99.90;;;;;;5065014;28;20206;-45
2022/03/20 06:11:16;;;;;;;24.65;15.20;;;3.80;99.90;;;;;;5064100;28;20229;-47
2022/03/20 06:13:45;;;;;;;23.35;15.77;;;4.10;99.60;;;;;;5063526;28;20490;-46
2022/03/20 06:16:14;;;;;;;22.80;14.65;;;4.00;99.20;;;;;;5064025;28;20206;-47
2022/03/20 06:18:42;;;;;;;19.52;14.45;;;4.20;98.90;;;;;;5064356;28;20198;-44
2022/03/20 06:21:11;;;;;;;26.80;15.65;;;4.30;98.00;;;;;;5064274;28;20242;-46
2022/03/20 06:23:38;;;;;;;26.98;16.83;;;4.20;98.10;;;;;;5066280;28;20202;-44
2022/03/20 06:26:06;;;;;;;28.17;15.77;;;4.10;97.90;;;;;;5063935;28;20207;-49
2022/03/20 06:28:34;;;;;;;25.30;15.63;;;4.00;98.00;;;;;;5062704;28;20215;-45
2022/03/20 06:31:12;;;;;;;23.40;14.57;;;4.10;98.00;;;;;;5069374;28;20227;-47
2022/03/20 06:33:55;;;;;;;24.58;14.88;;;4.10;97.70;;;;;;5063190;28;20195;-50
2022/03/20 06:36:23;;;;;;;19.05;15.07;;;4.10;97.80;;;;;;5062743;28;20200;-47
2022/03/20 06:38:51;;;;;;;24.55;15.55;;;4.40;97.30;;;;;;5068531;28;20264;-47
2022/03/20 06:41:19;;;;;;;21.10;14.18;;;4.50;97.00;;;;;;5063401;28;20294;-49
2022/03/20 06:43:46;;;;;;;23.55;14.90;;;4.30;96.70;;;;;;5064600;28;20223;-49
2022/03/20 06:46:17;;;;;;;24.48;15.73;;;4.40;96.70;;;;;;5063019;28;20195;-46
2022/03/20 06:48:53;;;;;;;28.77;16.92;;;4.70;96.30;;;;;;5063066;28;20207;-46
2022/03/20 06:51:23;;;;;;;22.05;15.30;;;4.80;95.70;;;;;;5064434;28;20745;-46
2022/03/20 06:53:54;;;;;;;22.27;15.77;;;5.10;95.20;;;;;;5063001;28;20227;-53
2022/03/20 06:56:21;;;;;;;27.27;15.00;;;5.40;94.90;;;;;;5062322;28;20503;-51
2022/03/20 06:58:49;;;;;;;28.65;16.92;;;6.00;93.70;;;;;;5062520;28;20234;-46
2022/03/20 07:01:16;;;;;;;23.90;17.40;;;6.30;92.90;;;;;;5062125;28;20223;-50
2022/03/20 07:03:43;;;;;;;24.55;17.75;;;7.40;91.60;;;;;;5064824;28;20239;-48
2022/03/20 07:06:11;;;;;;;22.15;16.42;;;8.40;87.80;;;;;;5067817;28;20209;-48
2022/03/20 07:08:38;;;;;;;25.23;16.13;;;8.20;86.90;;;;;;5073504;28;20212;-49
2022/03/20 07:11:06;;;;;;;26.17;17.38;;;8.90;84.30;;;;;;5091215;28;20228;-52
2022/03/20 07:13:53;;;;;;;24.95;18.02;;;8.50;83.10;;;;;;5091858;28;20225;-48
2022/03/20 07:16:23;;;;;;;26.40;18.30;;;9.00;81.50;;;;;;5082991;28;20214;-48
2022/03/20 07:18:50;;;;;;;29.67;17.55;;;9.10;80.40;;;;;;5070298;28;20205;-45
2022/03/20 07:21:19;;;;;;;20.80;15.43;;;9.20;78.90;;;;;;5079888;28;20225;-50
2022/03/20 07:23:46;;;;;;;23.60;16.45;;;9.60;78.20;;;;;;5079922;28;20225;-48
2022/03/20 07:31:52;;;;;;;25.73;15.88;;;10.50;72.60;;;;;;5079301;28;20582;-48
2022/03/20 07:34:21;;;;;;;21.83;16.67;;;10.40;70.10;;;;;;5079165;28;20440;-47
2022/03/20 07:36:48;;;;;;;22.75;17.33;;;9.50;70.40;;;;;;5077471;28;20206;-51
2022/03/20 07:39:17;;;;;;;23.33;16.40;;;9.50;72.00;;;;;;5077479;28;20211;-46
2022/03/20 07:41:44;;;;;;;25.25;17.92;;;9.30;72.10;;;;;;5079540;28;20225;-49
2022/03/20 07:44:11;;;;;;;29.85;17.92;;;9.70;71.80;;;;;;5079207;28;20198;-49
2022/03/20 07:46:40;;;;;;;25.15;16.88;;;10.00;71.10;;;;;;5078541;28;20197;-49
2022/03/20 07:49:08;;;;;;;28.13;19.35;;;11.00;68.00;;;;;;5078897;28;20199;-50
2022/03/20 07:51:37;;;;;;;25.60;18.73;;;11.10;68.30;;;;;;5079227;28;20242;-47
2022/03/20 07:54:04;;;;;;;26.73;19.65;;;12.20;64.70;;;;;;5079128;28;20199;-46
2022/03/20 07:56:35;;;;;;;27.42;18.23;;;11.70;64.60;;;;;;5079269;28;20215;-47
2022/03/20 07:59:06;;;;;;;27.88;19.38;;;12.10;65.00;;;;;;5077552;28;20509;-47
2022/03/20 08:01:34;;;;;;;28.73;18.50;;;12.10;62.80;;;;;;5079176;28;20600;-49
2022/03/20 08:04:03;;;;;;;25.67;16.85;;;11.50;63.90;;;;;;5074033;28;20219;-48
2022/03/20 08:06:30;;;;;;;30.80;16.92;;;11.90;63.70;;;;;;5079225;28;20199;-48
2022/03/20 08:08:59;;;;;;;23.25;18.17;;;11.80;63.30;;;;;;5077652;28;20446;-50
2022/03/20 08:11:29;;;;;;;26.67;18.27;;;11.70;62.30;;;;;;5079459;28;20222;-48
2022/03/20 08:13:57;;;;;;;24.80;18.70;;;11.80;62.20;;;;;;5072923;28;20310;-50
2022/03/20 08:16:29;;;;;;;28.77;18.45;;;11.50;62.50;;;;;;5077280;28;20545;-47
2022/03/20 08:18:56;;;;;;;21.90;18.00;;;12.30;60.90;;;;;;5077604;28;20195;-51
2022/03/20 08:21:24;;;;;;;29.55;19.00;;;12.80;59.70;;;;;;5079800;28;20233;-45
2022/03/20 08:23:53;;;;;;;24.50;18.67;;;13.10;59.00;;;;;;5073693;28;20206;-48
2022/03/20 08:26:20;;;;;;;27.23;20.88;;;12.90;58.10;;;;;;5075397;28;20607;-48
2022/03/20 08:28:47;;;;;;;22.70;17.60;;;12.60;59.20;;;;;;5078794;28;20397;-46
2022/03/20 08:31:14;;;;;;;27.45;18.17;;;12.90;58.40;;;;;;5078567;28;20218;-50
2022/03/20 08:33:41;;;;;;;28.45;20.27;;;13.00;58.60;;;;;;5078637;28;20423;-48
2022/03/20 08:36:12;;;;;;;23.92;16.92;;;12.30;59.00;;;;;;5078421;28;20199;-46
2022/03/20 08:38:40;;;;;;;26.02;18.52;;;11.70;59.60;;;;;;5077910;28;20195;-50
2022/03/20 08:41:07;;;;;;;25.25;17.42;;;12.50;58.70;;;;;;5077878;28;20227;-45
2022/03/20 08:43:34;;;;;;;24.13;18.80;;;12.90;58.00;;;;;;5078426;28;20214;-48
2022/03/20 08:46:02;;;;;;;20.35;18.08;;;12.80;58.40;;;;;;5078399;28;20233;-48
2022/03/20 08:48:29;;;;;;;28.15;17.65;;;12.40;58.60;;;;;;5078560;28;20262;-49
2022/03/20 08:50:56;;;;;;;23.65;17.20;;;12.00;59.50;;;;;;5076564;28;20553;-50
2022/03/20 08:53:27;;;;;;;26.40;18.48;;;12.70;57.60;;;;;;5077896;28;20332;-46
2022/03/20 08:55:55;;;;;;;25.50;18.48;;;12.70;58.20;;;;;;5078579;28;20207;-49
2022/03/20 08:58:22;;;;;;;24.80;18.73;;;13.60;57.80;;;;;;5077203;28;20266;-47
2022/03/20 09:00:49;;;;;;;29.30;19.52;;;14.40;56.30;;;;;;5075834;28;20220;-47
2022/03/20 09:03:17;;;;;;;22.48;18.25;;;14.20;56.40;;;;;;5068499;28;20272;-46
2022/03/20 09:05:45;;;;;;;34.20;23.30;;;13.50;56.60;;;;;;5061752;28;20196;-48
2022/03/20 09:08:12;;;;;;;32.88;24.63;;;13.80;56.10;;;;;;5062789;28;20545;-46
2022/03/20 09:10:39;;;;;;;20.27;15.02;;;13.20;56.90;;;;;;5067318;28;20301;-52
2022/03/20 09:13:06;;;;;;;26.58;20.08;;;13.10;57.10;;;;;;5064190;28;20226;-49
2022/03/20 09:15:33;;;;;;;23.77;16.73;;;12.40;58.60;;;;;;5068772;28;20274;-47
2022/03/20 09:20:48;;;;;;;23.58;16.50;;;13.80;57.50;;;;;;5067706;28;20415;-46
2022/03/20 09:23:15;;;;;;;28.05;21.70;;;13.80;57.00;;;;;;5064329;28;20200;-49
2022/03/20 09:25:42;;;;;;;24.13;17.33;;;13.10;56.90;;;;;;5066773;28;20207;-50
2022/03/20 09:28:11;;;;;;;23.65;17.73;;;12.50;58.10;;;;;;5065146;28;20510;-47
2022/03/20 09:30:40;;;;;;;23.73;16.17;;;13.20;57.70;;;;;;5068716;28;20238;-50
2022/03/20 09:33:08;;;;;;;20.67;18.10;;;13.50;57.20;;;;;;5070602;28;20287;-48
2022/03/20 09:35:37;;;;;;;25.25;18.40;;;13.50;56.90;;;;;;5078313;28;20199;-46
2022/03/20 09:38:06;;;;;;;25.05;16.33;;;12.30;58.70;;;;;;5078506;28;20505;-45
2022/03/20 09:40:37;;;;;;;27.42;17.50;;;10.80;62.10;;;;;;5076516;28;20222;-47
2022/03/20 09:43:05;;;;;;;24.30;17.50;;;10.50;63.60;;;;;;5076088;28;20225;-44
2022/03/20 09:45:34;;;;;;;23.35;17.67;;;10.10;64.10;;;;;;5077810;28;20214;-44
2022/03/20 09:48:01;;;;;;;22.27;17.38;;;9.70;65.20;;;;;;5079303;28;20293;-46
2022/03/20 09:50:28;;;;;;;24.90;18.65;;;9.30;66.40;;;;;;5078866;28;20301;-47
2022/03/20 09:52:58;;;;;;;25.65;17.15;;;9.00;67.00;;;;;;5076550;28;20263;-46
2022/03/20 09:55:26;;;;;;;25.88;15.98;;;8.80;67.60;;;;;;5078459;28;20205;-49
2022/03/20 09:57:57;;;;;;;26.08;17.25;;;8.80;68.40;;;;;;5078442;28;20280;-45
2022/03/20 10:00:25;;;;;;;23.85;17.60;;;9.10;69.00;;;;;;5062742;28;20271;-47
2022/03/20 10:02:53;;;;;;;23.55;17.33;;;9.10;67.70;;;;;;5060266;28;20203;-46
2022/03/20 10:05:22;;;;;;;21.38;17.05;;;8.80;68.10;;;;;;5077106;28;20208;-48
2022/03/20 10:07:49;;;;;;;22.45;17.42;;;8.80;68.70;;;;;;5077122;28;20200;-46
2022/03/20 10:10:18;;;;;;;25.88;17.17;;;8.90;68.30;;;;;;5069251;28;20221;-46
2022/03/20 10:12:50;;;;;;;27.88;18.52;;;9.00;68.40;;;;;;5062850;28;20545;-45
2022/03/20 10:15:34;;;;;;;19.55;15.00;;;9.10;67.90;;;;;;5061606;28;20232;-48
2022/03/20 10:18:20;;;;;;;23.67;17.35;;;8.90;68.10;;;;;;5063146;28;20210;-49
2022/03/20 10:20:49;;;;;;;19.45;15.20;;;8.90;67.40;;;;;;5062501;28;20227;-45
2022/03/20 10:23:41;;;;;;;26.77;17.73;;;8.90;68.00;;;;;;5076979;28;20205;-47
2022/03/20 10:26:14;;;;;;;19.77;15.95;;;9.10;67.30;;;;;;5076604;28;20208;-50
2022/03/20 10:28:49;;;;;;;24.50;14.55;;;9.20;67.30;;;;;;5075095;28;20225;-48
2022/03/20 10:31:22;;;;;;;18.38;13.55;;;9.40;65.70;;;;;;5070414;28;20459;-45
2022/03/20 10:34:00;;;;;;;22.85;14.75;;;9.30;66.40;;;;;;5082026;28;20260;-47
2022/03/20 10:36:28;;;;;;;21.20;13.32;;;9.40;66.90;;;;;;5081303;28;20201;-46
2022/03/20 10:38:58;;;;;;;23.20;13.90;;;9.60;65.20;;;;;;5079269;28;20214;-49
2022/03/20 10:41:27;;;;;;;15.48;13.63;;;9.50;65.00;;;;;;5080444;28;20446;-47
2022/03/20 10:43:56;;;;;;;20.75;14.07;;;9.50;65.40;;;;;;5080767;28;20209;-46
2022/03/20 10:46:26;;;;;;;17.80;13.30;;;9.60;64.80;;;;;;5081025;28;20217;-49
2022/03/20 10:48:58;;;;;;;18.95;11.55;;;9.50;64.10;;;;;;5078785;28;20205;-48
2022/03/20 10:51:39;;;;;;;24.83;14.32;;;9.40;63.70;;;;;;5081048;28;20542;-50
2022/03/20 10:54:21;;;;;;;18.63;12.50;;;9.60;63.50;;;;;;5082496;28;20262;-52
2022/03/20 10:56:56;;;;;;;15.40;10.68;;;9.70;64.50;;;;;;5080661;28;20518;-44
2022/03/20 10:59:28;;;;;;;14.18;12.18;;;9.90;63.00;;;;;;5083274;28;20205;-46
2022/03/20 11:01:57;;;;;;;12.35;10.05;;;10.00;62.10;;;;;;5083978;28;20221;-47
2022/03/20 11:04:25;;;;;;;13.10;10.70;;;10.10;61.00;;;;;;5084467;28;20221;-50
2022/03/20 11:06:54;;;;;;;17.55;11.80;;;10.10;61.00;;;;;;5079142;28;20214;-45
2022/03/20 11:09:22;;;;;;;15.75;11.57;;;10.30;61.00;;;;;;5080139;28;20273;-48
2022/03/20 11:11:51;;;;;;;17.23;12.50;;;10.40;60.80;;;;;;5079982;28;20310;-46
2022/03/20 11:14:23;;;;;;;17.33;9.90;;;10.30;59.60;;;;;;5078823;28;20461;-49
2022/03/20 11:17:06;;;;;;;13.95;10.27;;;10.30;61.00;;;;;;5078155;28;20201;-49
2022/03/20 11:19:35;;;;;;;23.50;12.45;;;10.40;59.50;;;;;;5081368;28;20224;-46
2022/03/20 11:22:05;;;;;;;9.07;8.18;;;10.30;59.10;;;;;;5081146;28;20223;-46
2022/03/20 11:24:33;;;;;;;15.77;10.70;;;10.30;59.80;;;;;;5081205;28;20662;-48
2022/03/20 11:27:03;;;;;;;17.17;11.38;;;10.50;60.20;;;;;;5079487;28;20234;-49
2022/03/20 11:29:44;;;;;;;15.38;12.75;;;10.40;59.80;;;;;;5080402;28;20652;-50
2022/03/20 11:32:12;;;;;;;11.90;10.63;;;10.50;60.60;;;;;;5080569;28;20251;-47
2022/03/20 11:34:40;;;;;;;11.52;9.85;;;10.40;59.50;;;;;;5079501;28;20225;-51
2022/03/20 11:37:08;;;;;;;14.45;11.25;;;10.50;59.40;;;;;;5077338;28;20199;-48
2022/03/20 11:39:38;;;;;;;19.15;11.88;;;10.60;59.70;;;;;;5082051;28;20202;-47
2022/03/20 11:42:24;;;;;;;16.73;11.63;;;10.60;59.60;;;;;;5080957;28;20203;-47
2022/03/20 11:45:01;;;;;;;10.00;8.98;;;10.30;59.90;;;;;;5078474;28;20410;-46
2022/03/20 11:47:30;;;;;;;11.88;10.15;;;10.50;60.50;;;;;;5081081;28;20345;-48
2022/03/20 11:50:13;;;;;;;16.00;10.30;;;10.70;59.50;;;;;;5080913;28;20251;-47
2022/03/20 11:52:48;;;;;;;15.60;10.75;;;10.70;58.80;;;;;;5079729;28;20247;-48
2022/03/20 11:55:36;;;;;;;12.35;9.02;;;10.70;57.10;;;;;;5073465;28;20203;-52
2022/03/20 11:58:17;;;;;;;12.05;9.77;;;10.70;58.30;;;;;;5079240;28;20213;-49
2022/03/20 12:00:45;;;;;;;15.70;10.60;;;10.70;59.10;;;;;;5081633;28;20230;-49
2022/03/20 12:03:16;;;;;;;16.65;10.13;;;10.80;59.30;;;;;;5072302;28;20221;-48
2022/03/20 12:06:04;;;;;;;12.57;9.75;;;10.80;58.60;;;;;;5081755;28;20210;-51
2022/03/20 12:08:53;;;;;;;15.15;9.85;;;11.00;58.90;;;;;;5077254;28;20206;-49
2022/03/20 12:11:33;;;;;;;13.43;9.57;;;11.10;58.00;;;;;;5074732;28;20223;-49
2022/03/20 12:14:09;;;;;;;12.65;7.88;;;11.20;57.50;;;;;;5079826;28;20226;-48
2022/03/20 12:16:42;;;;;;;9.55;8.45;;;11.30;57.70;;;;;;5079139;28;20209;-47
2022/03/20 12:19:11;;;;;;;17.38;11.27;;;11.10;57.30;;;;;;5079056;28;20485;-48
2022/03/20 12:21:57;;;;;;;13.32;9.93;;;11.00;58.10;;;;;;5083549;28;20222;-46
2022/03/20 12:24:58;;;;;;;9.90;8.32;;;10.90;58.20;;;;;;5080642;28;20202;-51
2022/03/20 12:27:25;;;;;;;9.30;8.30;;;11.10;57.20;;;;;;5074306;28;20201;-50
2022/03/20 12:29:58;;;;;;;13.55;10.05;;;11.20;57.80;;;;;;5081575;28;20225;-48
2022/03/20 12:32:26;;;;;;;13.77;9.13;;;11.20;57.20;;;;;;5080446;28;20209;-47
2022/03/20 12:35:00;;;;;;;9.00;8.10;;;11.10;55.90;;;;;;5077421;28;20227;-47
2022/03/20 12:37:33;;;;;;;7.97;7.18;;;11.20;55.50;;;;;;5081245;28;20199;-49
2022/03/20 12:40:32;;;;;;;9.57;8.43;;;11.20;55.10;;;;;;5080104;28;20225;-47
2022/03/20 12:43:20;;;;;;;9.75;7.20;;;11.20;55.80;;;;;;5080596;28;20253;-50
2022/03/20 12:45:55;;;;;;;12.05;7.68;;;11.20;55.40;;;;;;5084165;28;20217;-48
2022/03/20 12:48:23;;;;;;;10.90;8.35;;;11.10;55.40;;;;;;5082909;28;20232;-51
2022/03/20 12:50:59;;;;;;;11.48;7.32;;;11.20;55.00;;;;;;5081131;28;20233;-48
2022/03/20 12:53:43;;;;;;;11.25;6.82;;;11.20;54.20;;;;;;5080290;28;20256;-47
2022/03/20 12:58:45;;;;;;;11.73;6.57;;;11.30;53.30;;;;;;5077530;28;20402;-51
2022/03/20 13:01:12;;;;;;;9.68;7.40;;;11.20;53.60;;;;;;5079426;28;20440;-47
2022/03/20 13:03:41;;;;;;;7.75;5.65;;;11.30;54.10;;;;;;5079814;28;20264;-46
2022/03/20 13:06:08;;;;;;;14.90;7.18;;;11.40;52.80;;;;;;5079053;28;20214;-46
2022/03/20 13:08:38;;;;;;;9.68;7.00;;;11.30;52.80;;;;;;5079573;28;20206;-47
2022/03/20 13:11:06;;;;;;;8.52;7.72;;;11.10;53.70;;;;;;5079781;28;20291;-48
2022/03/20 13:13:35;;;;;;;8.15;7.28;;;11.10;54.00;;;;;;5074581;28;20232;-47
2022/03/20 13:16:05;;;;;;;8.25;7.05;;;11.00;52.50;;;;;;5075481;28;20203;-48
2022/03/20 13:18:35;;;;;;;9.77;8.07;;;11.10;52.70;;;;;;5079717;28;20555;-51
2022/03/20 13:21:07;;;;;;;8.65;7.35;;;11.10;53.20;;;;;;5077139;28;20219;-46